createdAt,value
2023-01-04T00:00:18.474Z,0.80
2023-01-04T00:02:49.503Z,0.80
2023-01-04T00:05:20.091Z,0.55
2023-01-04T00:07:53.183Z,0.50
2023-01-04T00:10:23.590Z,0.73
2023-01-04T00:12:54.065Z,0.40
2023-01-04T00:15:24.605Z,0.55
2023-01-04T00:17:55.275Z,0.70
2023-01-04T00:20:25.729Z,0.75
2023-01-04T00:22:58.768Z,0.60
2023-01-04T00:25:29.635Z,0.55
2023-01-04T00:28:00.116Z,1.02
2023-01-04T00:30:30.579Z,0.70
2023-01-04T00:33:01.045Z,0.82
2023-01-04T00:35:45.244Z,0.82
2023-01-04T00:38:19.360Z,0.57
2023-01-04T00:40:49.854Z,0.80
2023-01-04T00:43:20.387Z,0.50
2023-01-04T00:45:51.022Z,0.70
2023-01-04T00:48:21.552Z,0.70
2023-01-04T00:50:53.897Z,0.60
2023-01-04T00:53:26.967Z,0.60
2023-01-04T00:56:03.199Z,0.70
2023-01-04T00:58:33.726Z,0.80
2023-01-04T01:01:08.462Z,0.43
2023-01-04T01:03:39.974Z,0.70
2023-01-04T01:06:12.543Z,0.70
2023-01-04T01:08:45.740Z,0.63
2023-01-04T01:11:16.447Z,0.60
2023-01-04T01:13:47.559Z,0.82
2023-01-04T01:16:51.939Z,0.50
2023-01-04T01:19:14.927Z,0.60
2023-01-04T01:21:45.687Z,0.85
2023-01-04T01:24:22.098Z,0.88
2023-01-04T01:26:52.646Z,0.68
2023-01-04T01:29:23.391Z,0.80
2023-01-04T01:31:54.478Z,0.65
2023-01-04T01:34:25.283Z,0.95
2023-01-04T01:36:56.151Z,0.80
2023-01-04T01:39:29.363Z,0.70
2023-01-04T01:41:59.797Z,0.70
2023-01-04T01:45:01.792Z,0.52
2023-01-04T01:47:41.118Z,0.98
2023-01-04T01:50:23.490Z,0.90
2023-01-04T01:52:57.090Z,0.93
2023-01-04T01:55:33.428Z,1.15
2023-01-04T01:58:06.117Z,0.80
2023-01-04T02:00:37.606Z,0.90
2023-01-04T02:03:16.825Z,0.93
2023-01-04T02:05:49.995Z,0.68
2023-01-04T02:08:22.617Z,0.70
2023-01-04T02:10:56.218Z,0.80
2023-01-04T02:13:51.322Z,0.77
2023-01-04T02:16:30.656Z,0.90
2023-01-04T02:19:23.577Z,0.95
2023-01-04T02:22:16.745Z,0.90
2023-01-04T02:25:05.631Z,0.90
2023-01-04T02:27:55.924Z,0.50
2023-01-04T02:31:08.774Z,0.93
2023-01-04T02:33:49.440Z,1.08
2023-01-04T02:36:26.646Z,0.95
2023-01-04T02:39:08.724Z,1.08
2023-01-04T02:41:46.777Z,0.90
2023-01-04T02:44:33.281Z,1.00
2023-01-04T02:47:11.719Z,0.57
2023-01-04T02:49:59.073Z,0.68
2023-01-04T02:52:34.980Z,0.85
2023-01-04T02:55:09.204Z,0.57
2023-01-04T02:57:52.048Z,0.50
2023-01-04T03:00:57.873Z,0.70
2023-01-04T03:03:50.072Z,0.75
2023-01-04T03:06:26.754Z,0.82
2023-01-04T03:09:02.500Z,0.65
2023-01-04T03:11:53.879Z,0.63
2023-01-04T03:14:32.032Z,0.60
2023-01-04T03:17:08.344Z,0.65
2023-01-04T03:19:55.843Z,0.55
2023-01-04T03:22:45.639Z,0.75
2023-01-04T03:25:31.140Z,0.57
2023-01-04T03:28:15.901Z,0.70
2023-01-04T03:31:06.233Z,0.57
2023-01-04T03:33:49.273Z,0.73
2023-01-04T03:36:38.817Z,0.52
2023-01-04T03:39:31.701Z,0.52
2023-01-04T03:42:19.922Z,0.98
2023-01-04T03:45:10.478Z,0.68
2023-01-04T03:48:01.311Z,0.93
2023-01-04T03:50:40.317Z,0.50
2023-01-04T03:53:15.468Z,0.70
2023-01-04T03:55:48.345Z,0.68
2023-01-04T03:58:18.979Z,0.40
2023-01-04T04:00:49.873Z,1.00
2023-01-04T04:03:20.576Z,0.50
2023-01-04T04:06:03.563Z,0.70
2023-01-04T04:08:36.873Z,0.50
2023-01-04T04:11:20.090Z,0.77
2023-01-04T04:13:51.131Z,0.60
2023-01-04T04:16:21.987Z,0.95
2023-01-04T04:18:52.676Z,0.70
2023-01-04T04:21:23.342Z,0.90
2023-01-04T04:23:57.992Z,1.50
2023-01-04T04:26:28.673Z,1.10
2023-01-04T04:28:59.491Z,1.00
2023-01-04T04:31:30.212Z,1.10
2023-01-04T04:34:01.242Z,0.80
2023-01-04T04:36:32.122Z,1.08
2023-01-04T04:39:05.483Z,0.90
2023-01-04T04:41:39.882Z,1.65
2023-01-04T04:44:12.420Z,0.70
2023-01-04T04:46:43.327Z,0.95
2023-01-04T04:49:14.488Z,0.70
2023-01-04T04:51:46.514Z,0.90
2023-01-04T04:54:22.105Z,0.80
2023-01-04T04:56:53.245Z,0.80
2023-01-04T04:59:23.907Z,1.17
2023-01-04T05:01:54.983Z,1.02
2023-01-04T05:04:25.878Z,1.10
2023-01-04T05:06:56.298Z,1.17
2023-01-04T05:09:29.345Z,1.27
2023-01-04T05:12:12.386Z,1.45
2023-01-04T05:14:43.181Z,1.13
2023-01-04T05:17:13.789Z,1.33
2023-01-04T05:19:44.475Z,1.17
2023-01-04T05:22:15.023Z,1.08
2023-01-04T05:24:48.494Z,1.25
2023-01-04T05:27:19.232Z,1.55
2023-01-04T05:30:02.141Z,1.17
2023-01-04T05:32:32.701Z,1.00
2023-01-04T05:35:03.359Z,1.20
2023-01-04T05:37:34.163Z,1.00
2023-01-04T05:40:08.142Z,1.42
2023-01-04T05:42:38.745Z,0.95
2023-01-04T05:45:10.539Z,0.93
2023-01-04T05:47:41.245Z,1.25
2023-01-04T05:50:12.944Z,0.77
2023-01-04T05:52:43.671Z,0.93
2023-01-04T05:55:16.809Z,1.10
2023-01-04T05:57:47.448Z,0.93
2023-01-04T06:00:18.517Z,1.00
2023-01-04T06:02:49.598Z,1.02
2023-01-04T06:05:20.366Z,1.05
2023-01-04T06:07:51.141Z,1.20
2023-01-04T06:10:24.529Z,1.05
2023-01-04T06:12:55.025Z,1.00
2023-01-04T06:15:25.534Z,1.17
2023-01-04T06:17:56.396Z,0.95
2023-01-04T06:20:27.130Z,0.77
2023-01-04T06:23:00.261Z,1.45
2023-01-04T06:25:33.455Z,1.20
2023-01-04T06:28:04.120Z,1.27
2023-01-04T06:30:35.313Z,1.25
2023-01-04T06:33:05.948Z,0.90
2023-01-04T06:35:36.623Z,1.40
2023-01-04T06:38:07.083Z,1.05
2023-01-04T06:40:40.257Z,1.13
2023-01-04T06:43:10.804Z,1.38
2023-01-04T06:45:41.585Z,1.00
2023-01-04T06:48:12.094Z,1.00
2023-01-04T06:50:48.932Z,0.88
2023-01-04T06:53:19.375Z,1.23
2023-01-04T06:55:52.488Z,0.80
2023-01-04T06:58:22.936Z,1.13
2023-01-04T07:00:54.538Z,1.20
2023-01-04T07:03:25.785Z,0.90
2023-01-04T07:05:56.316Z,0.80
2023-01-04T07:08:27.047Z,0.80
2023-01-04T07:11:00.197Z,0.85
2023-01-04T07:13:31.102Z,0.80
2023-01-04T07:16:01.902Z,1.00
2023-01-04T07:18:32.729Z,0.75
2023-01-04T07:21:03.387Z,0.82
2023-01-04T07:23:33.880Z,0.90
2023-01-04T07:26:07.760Z,0.80
2023-01-04T07:28:50.776Z,0.88
2023-01-04T07:31:21.807Z,0.73
2023-01-04T07:33:53.659Z,0.73
2023-01-04T07:36:24.292Z,0.77
2023-01-04T07:38:54.869Z,0.60
2023-01-04T07:41:27.894Z,0.60
2023-01-04T07:43:58.339Z,0.60
2023-01-04T07:46:28.901Z,0.75
2023-01-04T07:48:59.403Z,0.60
2023-01-04T07:51:29.793Z,0.70
2023-01-04T07:54:00.281Z,0.70
2023-01-04T07:56:33.235Z,0.52
2023-01-04T07:59:04.554Z,0.40
2023-01-04T08:01:35.706Z,0.65
2023-01-04T08:04:06.441Z,0.50
2023-01-04T08:06:38.243Z,0.43
2023-01-04T08:09:09.894Z,0.40
2023-01-04T08:11:43.078Z,0.70
2023-01-04T08:14:13.897Z,0.55
2023-01-04T08:16:45.923Z,0.70
2023-01-04T08:19:18.366Z,0.90
2023-01-04T08:21:49.517Z,1.10
2023-01-04T08:24:22.763Z,0.73
2023-01-04T08:26:56.452Z,0.80
2023-01-04T08:29:34.381Z,0.60
2023-01-04T08:32:05.278Z,0.52
2023-01-04T08:34:35.919Z,0.47
2023-01-04T08:37:06.414Z,0.50
2023-01-04T08:39:37.349Z,0.60
2023-01-04T08:42:22.128Z,0.70
2023-01-04T08:45:01.568Z,0.50
2023-01-04T08:47:33.032Z,0.50
2023-01-04T08:50:10.481Z,0.45
2023-01-04T08:52:41.695Z,0.60
2023-01-04T08:55:14.565Z,0.52
2023-01-04T09:00:21.776Z,0.77
2023-01-04T09:02:52.823Z,0.60
2023-01-04T09:05:23.799Z,0.52
2023-01-04T09:07:54.352Z,0.50
2023-01-04T09:10:24.775Z,0.80
2023-01-04T09:12:57.909Z,0.52
2023-01-04T09:15:28.257Z,0.40
2023-01-04T09:18:30.355Z,0.40
2023-01-04T09:20:49.454Z,0.40
2023-01-04T09:23:20.009Z,0.50
2023-01-04T09:25:50.400Z,0.60
2023-01-04T09:28:23.551Z,0.50
2023-01-04T09:30:54.128Z,0.45
2023-01-04T09:33:41.287Z,0.30
2023-01-04T09:36:17.513Z,0.40
2023-01-04T09:38:49.306Z,0.50
2023-01-04T09:41:27.159Z,0.30
2023-01-04T09:44:04.112Z,0.30
2023-01-04T09:46:42.067Z,0.13
2023-01-04T09:49:21.392Z,0.40
2023-01-04T09:52:01.198Z,0.40
2023-01-04T09:54:38.916Z,0.25
2023-01-04T09:57:18.277Z,0.30
2023-01-04T09:59:54.396Z,0.22
2023-01-04T10:02:32.852Z,0.40
2023-01-04T10:05:08.436Z,0.20
2023-01-04T10:07:39.340Z,0.30
2023-01-04T10:10:16.083Z,0.20
2023-01-04T10:13:00.126Z,0.45
2023-01-04T10:15:41.703Z,0.32
2023-01-04T10:21:35.503Z,0.30
2023-01-04T10:24:23.398Z,0.23
2023-01-04T10:27:02.143Z,0.20
2023-01-04T10:29:45.160Z,0.20
2023-01-04T10:32:25.537Z,0.30
2023-01-04T10:34:56.514Z,0.20
2023-01-04T10:37:31.099Z,0.22
2023-01-04T10:40:01.594Z,0.20
2023-01-04T10:42:36.411Z,0.30
2023-01-04T10:45:16.399Z,0.35
2023-01-04T10:48:00.053Z,0.30
2023-01-04T10:50:36.822Z,0.20
2023-01-04T10:53:13.282Z,0.10
2023-01-04T10:56:23.673Z,0.20
2023-01-04T10:58:46.368Z,0.20
2023-01-04T11:01:23.872Z,0.30
2023-01-04T11:04:05.468Z,0.20
2023-01-04T11:06:42.872Z,0.30
2023-01-04T11:09:25.149Z,0.20
2023-01-04T11:11:59.532Z,0.20
2023-01-04T11:14:36.783Z,0.10
2023-01-04T11:17:11.175Z,0.20
2023-01-04T11:19:45.494Z,0.30
2023-01-04T11:25:33.110Z,0.10
2023-01-04T11:27:50.357Z,0.25
2023-01-04T11:30:25.559Z,0.20
2023-01-04T11:33:03.043Z,0.20
2023-01-04T11:35:45.057Z,0.17
2023-01-04T11:38:18.803Z,0.30
2023-01-04T11:41:08.059Z,0.20
2023-01-04T11:43:41.145Z,0.20
2023-01-04T11:46:27.148Z,0.40
2023-01-04T11:48:58.217Z,0.10
2023-01-04T11:51:41.337Z,0.10
2023-01-04T11:54:22.946Z,0.15
2023-01-04T11:57:11.856Z,0.20
2023-01-04T11:59:42.892Z,0.20
2023-01-04T12:05:29.506Z,0.22
2023-01-04T12:08:03.480Z,0.22
2023-01-04T12:10:35.042Z,0.40
2023-01-04T12:13:05.897Z,0.20
2023-01-04T12:15:42.051Z,0.10
2023-01-04T12:18:19.276Z,0.20
2023-01-04T12:20:50.089Z,0.20
2023-01-04T12:23:23.345Z,0.17
2023-01-04T12:25:55.163Z,0.30
2023-01-04T12:28:37.717Z,0.30
2023-01-04T12:31:30.659Z,0.20
2023-01-04T12:34:02.719Z,0.10
2023-01-04T12:37:04.543Z,0.10
2023-01-04T12:39:48.823Z,0.20
2023-01-04T12:42:27.299Z,0.28
2023-01-04T12:45:04.682Z,0.10
2023-01-04T12:48:01.873Z,0.28
2023-01-04T12:50:34.913Z,0.10
2023-01-04T12:53:29.051Z,0.15
2023-01-04T12:56:01.279Z,0.10
2023-01-04T12:59:24.586Z,0.20
2023-01-04T13:02:23.099Z,0.10
2023-01-04T13:05:25.662Z,0.20
2023-01-04T13:07:51.415Z,0.30
2023-01-04T13:10:29.799Z,0.40
2023-01-04T13:13:25.919Z,0.30
2023-01-04T13:16:11.813Z,0.15
2023-01-04T13:18:44.821Z,0.28
2023-01-04T13:21:17.354Z,0.22
2023-01-04T13:23:54.271Z,0.30
2023-01-04T13:26:48.365Z,0.25
2023-01-04T13:29:24.801Z,0.30
2023-01-04T13:31:59.351Z,0.20
2023-01-04T13:34:34.490Z,0.30
2023-01-04T13:37:18.962Z,0.30
2023-01-04T13:42:28.110Z,0.30
2023-01-04T13:45:25.829Z,0.40
2023-01-04T13:48:00.758Z,0.20
2023-01-04T13:50:40.294Z,0.40
2023-01-04T13:53:22.457Z,0.25
2023-01-04T13:55:55.058Z,0.43
2023-01-04T13:58:27.360Z,0.40
2023-01-04T14:01:04.181Z,0.30
2023-01-04T14:03:43.133Z,0.20
2023-01-04T14:06:24.225Z,0.30
2023-01-04T14:09:03.111Z,0.28
2023-01-04T14:11:49.530Z,0.20
2023-01-04T14:14:36.445Z,0.40
2023-01-04T14:17:46.172Z,0.35
2023-01-04T14:20:35.246Z,0.40
2023-01-04T14:23:06.673Z,0.32
2023-01-04T14:25:48.740Z,0.20
2023-01-04T14:28:41.786Z,0.30
2023-01-04T14:31:37.993Z,0.30
2023-01-04T14:34:17.431Z,0.60
2023-01-04T14:36:48.107Z,0.30
2023-01-04T14:39:27.772Z,0.30
2023-01-04T14:42:00.394Z,0.28
2023-01-04T14:44:36.146Z,0.45
2023-01-04T14:47:08.819Z,0.50
2023-01-04T14:49:41.840Z,0.40
2023-01-04T14:52:15.789Z,0.68
2023-01-04T14:54:46.297Z,0.60
2023-01-04T14:57:17.319Z,0.50
2023-01-04T14:59:49.091Z,0.80
2023-01-04T15:02:20.703Z,0.50
2023-01-04T15:04:54.381Z,0.57
2023-01-04T15:07:36.775Z,0.80
2023-01-04T15:10:09.749Z,0.60
2023-01-04T15:12:40.256Z,0.70
2023-01-04T15:15:13.121Z,0.70
2023-01-04T15:17:43.975Z,0.80
2023-01-04T15:20:17.545Z,1.02
2023-01-04T15:22:48.204Z,0.82
2023-01-04T15:25:18.996Z,1.02
2023-01-04T15:27:49.540Z,1.08
2023-01-04T15:30:20.421Z,0.80
2023-01-04T15:32:52.811Z,0.60
2023-01-04T15:35:26.138Z,0.70
2023-01-04T15:37:56.608Z,0.60
2023-01-04T15:40:28.275Z,0.85
2023-01-04T15:42:59.250Z,0.60
2023-01-04T15:45:30.373Z,0.73
2023-01-04T15:48:03.278Z,0.95
2023-01-04T15:50:38.100Z,0.80
2023-01-04T15:53:09.619Z,0.70
2023-01-04T15:55:40.690Z,1.20
2023-01-04T15:58:11.485Z,1.20
2023-01-04T16:00:42.014Z,1.10
2023-01-04T16:03:12.514Z,0.82
2023-01-04T16:05:45.798Z,0.50
2023-01-04T16:08:16.349Z,0.73
2023-01-04T16:10:47.075Z,0.80
2023-01-04T16:13:17.522Z,0.90
2023-01-04T16:15:48.043Z,1.25
2023-01-04T16:18:18.670Z,0.80
2023-01-04T16:20:52.053Z,0.80
2023-01-04T16:23:23.161Z,0.83
2023-01-04T16:25:54.135Z,0.80
2023-01-04T16:28:24.935Z,0.90
2023-01-04T16:30:57.902Z,0.82
2023-01-04T16:33:28.480Z,1.00
2023-01-04T16:36:07.200Z,1.00
2023-01-04T16:38:42.559Z,0.60
2023-01-04T16:41:15.431Z,0.73
2023-01-04T16:43:47.580Z,1.08
2023-01-04T16:46:24.699Z,0.80
2023-01-04T16:48:56.655Z,0.50
2023-01-04T16:51:31.586Z,1.10
2023-01-04T16:54:04.597Z,0.40
2023-01-04T16:56:36.056Z,0.93
2023-01-04T16:59:07.403Z,0.73
2023-01-04T17:01:48.877Z,1.00
2023-01-04T17:04:22.186Z,0.90
2023-01-04T17:06:58.398Z,0.80
2023-01-04T17:09:29.101Z,0.80
2023-01-04T17:17:46.520Z,0.70
2023-01-04T17:20:17.434Z,0.73
2023-01-04T17:22:50.766Z,0.60
2023-01-04T17:25:22.205Z,0.80
2023-01-04T17:27:52.649Z,0.90
2023-01-04T17:30:23.503Z,0.80
2023-01-04T17:32:54.076Z,0.75
2023-01-04T17:35:27.225Z,0.60
2023-01-04T17:38:00.490Z,0.63
2023-01-04T17:40:31.095Z,0.60
2023-01-04T17:43:01.687Z,0.60
2023-01-04T17:45:32.320Z,0.82
2023-01-04T17:48:03.039Z,1.00
2023-01-04T17:50:33.709Z,1.25
2023-01-04T17:53:06.834Z,0.68
2023-01-04T17:55:37.970Z,1.00
2023-01-04T17:58:12.028Z,0.77
2023-01-04T18:00:43.726Z,0.88
2023-01-04T18:03:14.353Z,0.90
2023-01-04T18:06:07.071Z,1.00
2023-01-04T18:08:46.035Z,1.10
2023-01-04T18:11:17.714Z,1.00
2023-01-04T18:13:48.742Z,0.77
2023-01-04T18:16:25.463Z,0.98
2023-01-04T18:18:56.818Z,0.47
2023-01-04T18:21:30.836Z,1.30
2023-01-04T18:27:20.796Z,1.02
2023-01-04T18:29:50.171Z,1.33
2023-01-04T18:32:20.831Z,1.42
2023-01-04T18:34:51.534Z,1.08
2023-01-04T18:37:22.210Z,0.80
2023-01-04T18:39:55.463Z,1.52
2023-01-04T18:42:26.053Z,1.17
2023-01-04T18:44:57.203Z,1.00
2023-01-04T18:47:28.042Z,1.55
2023-01-04T18:49:58.534Z,1.40
2023-01-04T18:52:29.578Z,1.08
2023-01-04T18:55:04.015Z,1.13
2023-01-04T18:57:34.587Z,1.95
2023-01-04T19:00:05.714Z,1.35
2023-01-04T19:02:36.486Z,1.15
2023-01-04T19:05:07.878Z,1.90
2023-01-04T19:07:41.678Z,1.83
2023-01-04T19:10:15.080Z,1.80
2023-01-04T19:12:46.278Z,1.65
2023-01-04T19:15:16.738Z,1.90
2023-01-04T19:17:47.464Z,1.48
2023-01-04T19:20:17.927Z,1.60
2023-01-04T19:22:48.485Z,1.55
2023-01-04T19:25:27.848Z,1.98
2023-01-04T19:27:59.071Z,1.88
2023-01-04T19:30:30.187Z,1.80
2023-01-04T19:33:01.323Z,1.40
2023-01-04T19:35:32.031Z,1.13
2023-01-04T19:38:02.827Z,1.35
2023-01-04T19:40:36.034Z,1.25
2023-01-04T19:43:07.411Z,1.60
2023-01-04T19:45:41.884Z,1.27
2023-01-04T19:48:12.412Z,2.15
2023-01-04T19:50:42.941Z,1.60
2023-01-04T19:53:14.092Z,1.80
2023-01-04T19:55:47.197Z,1.38
2023-01-04T19:58:17.796Z,1.55
2023-01-04T20:00:54.460Z,1.33
2023-01-04T20:03:26.148Z,1.48
2023-01-04T20:05:57.681Z,1.05
2023-01-04T20:08:28.241Z,1.30
2023-01-04T20:11:04.194Z,1.15
2023-01-04T20:13:35.883Z,1.40
2023-01-04T20:16:07.693Z,1.17
2023-01-04T20:18:39.561Z,1.95
2023-01-04T20:21:12.864Z,1.20
2023-01-04T20:23:43.871Z,1.27
2023-01-04T20:26:20.714Z,1.27
2023-01-04T20:28:52.110Z,1.50
2023-01-04T20:31:23.021Z,0.98
2023-01-04T20:33:53.549Z,1.65
2023-01-04T20:36:26.739Z,1.45
2023-01-04T20:38:58.290Z,1.15
2023-01-04T20:41:33.195Z,1.20
2023-01-04T20:44:02.880Z,1.60
2023-01-04T20:46:34.726Z,1.33
2023-01-04T20:49:06.387Z,1.63
2023-01-04T20:51:36.892Z,1.85
2023-01-04T20:54:07.588Z,2.03
2023-01-04T20:56:44.275Z,1.20
2023-01-04T20:59:14.731Z,1.35
2023-01-04T21:01:47.945Z,1.83
2023-01-04T21:04:18.572Z,1.73
2023-01-04T21:06:49.094Z,1.27
2023-01-04T21:09:19.616Z,1.50
2023-01-04T21:11:55.624Z,2.03
2023-01-04T21:14:27.525Z,2.38
2023-01-04T21:16:58.031Z,1.33
2023-01-04T21:19:28.832Z,1.73
2023-01-04T21:21:59.771Z,1.35
2023-01-04T21:24:30.395Z,2.42
2023-01-04T21:27:03.769Z,1.60
2023-01-04T21:29:34.627Z,1.40
2023-01-04T21:32:05.138Z,1.13
2023-01-04T21:34:35.585Z,1.73
2023-01-04T21:37:06.283Z,1.30
2023-01-04T21:39:36.954Z,1.27
2023-01-04T21:44:40.166Z,1.25
2023-01-04T21:47:10.667Z,1.35
2023-01-04T21:49:43.919Z,1.30
2023-01-04T21:52:14.786Z,1.33
2023-01-04T21:54:45.393Z,1.30
2023-01-04T21:57:18.584Z,1.50
2023-01-04T21:59:49.314Z,1.20
2023-01-04T22:02:22.491Z,1.23
2023-01-04T22:04:52.973Z,0.98
2023-01-04T22:07:23.497Z,1.00
2023-01-04T22:09:57.688Z,1.20
2023-01-04T22:12:31.124Z,1.27
2023-01-04T22:15:03.417Z,1.27
2023-01-04T22:17:33.869Z,1.33
2023-01-04T22:20:04.494Z,1.67
2023-01-04T22:22:35.240Z,1.70
2023-01-04T22:25:05.677Z,1.80
2023-01-04T22:27:38.938Z,1.35
2023-01-04T22:30:10.743Z,1.38
2023-01-04T22:32:41.509Z,1.95
2023-01-04T22:35:12.607Z,1.38
2023-01-04T22:37:43.153Z,1.27
2023-01-04T22:40:15.769Z,1.23
2023-01-04T22:42:48.804Z,1.45
2023-01-04T22:45:19.492Z,1.17
2023-01-04T22:47:50.018Z,1.27
2023-01-04T22:50:22.182Z,1.45
2023-01-04T22:52:54.100Z,1.50
2023-01-04T22:55:35.135Z,1.00
2023-01-04T22:58:18.897Z,1.02
2023-01-04T23:00:49.432Z,0.80
2023-01-04T23:03:20.156Z,0.88
2023-01-04T23:05:50.867Z,1.17
2023-01-04T23:08:21.412Z,2.00
2023-01-04T23:10:51.819Z,1.95
2023-01-04T23:13:25.362Z,1.50
2023-01-04T23:15:57.948Z,1.40
2023-01-04T23:18:29.440Z,0.90
2023-01-04T23:21:00.399Z,1.90
2023-01-04T23:23:31.853Z,1.65
2023-01-04T23:26:08.764Z,1.30
2023-01-04T23:28:41.843Z,1.60
2023-01-04T23:31:16.176Z,2.05
2023-01-04T23:33:47.005Z,1.52
2023-01-04T23:36:19.221Z,1.27
2023-01-04T23:38:53.906Z,1.20
2023-01-04T23:41:44.717Z,0.85
2023-01-04T23:46:56.539Z,1.52
2023-01-04T23:49:29.032Z,1.45
2023-01-04T23:52:00.448Z,1.60
2023-01-04T23:54:31.488Z,0.90
2023-01-04T23:57:03.842Z,1.02
2023-01-04T23:59:37.183Z,1.23
